Time;durP1;ratioP1;P1;durP2;ratioP2;P2;SDS_P1;SDS_P2;PMS_P1;PMS_P2;Temp;Humidity;BMP_temperature;BMP_pressure;BME280_temperature;BME280_humidity;BME280_pressure;Samples;Min_cycle;Max_cycle;Signal;HPM_P1;HPM_P2
2022/10/17 00:02:54;;;;;;;18.70;15.03;;;;;;;;;;6570120;28;20272;-84
2022/10/17 00:06:11;;;;;;;17.63;14.77;;;;;;;;;;6570386;28;20260;-83
2022/10/17 00:09:22;;;;;;;16.60;14.60;;;;;;;;;;6570033;28;20173;-83
2022/10/17 00:12:33;;;;;;;18.10;15.40;;;;;;;;;;6569492;28;20181;-83
2022/10/17 00:15:43;;;;;;;19.10;15.17;;;;;;;;;;6569568;28;20240;-83
2022/10/17 00:18:54;;;;;;;20.93;15.57;;;;;;;;;;6570024;28;20291;-82
2022/10/17 00:22:04;;;;;;;20.83;15.87;;;;;;;;;;6569384;28;20648;-82
2022/10/17 00:25:14;;;;;;;19.00;16.13;;;;;;;;;;6569312;28;20210;-82
2022/10/17 00:28:25;;;;;;;19.47;16.07;;;;;;;;;;6570145;28;20173;-83
2022/10/17 00:31:35;;;;;;;22.37;16.10;;;;;;;;;;6569737;28;20176;-83
2022/10/17 00:34:45;;;;;;;19.00;15.67;;;;;;;;;;6569311;28;20172;-83
2022/10/17 00:37:56;;;;;;;22.10;15.80;;;;;;;;;;6569860;28;20549;-83
2022/10/17 00:41:07;;;;;;;19.47;16.03;;;;;;;;;;6569759;28;20204;-83
2022/10/17 00:44:30;;;;;;;18.80;15.63;;;;;;;;;;6569395;28;20192;-83
2022/10/17 00:47:41;;;;;;;18.67;15.00;;;;;;;;;;6572527;28;20173;-83
2022/10/17 00:50:51;;;;;;;18.67;16.00;;;;;;;;;;6573945;28;20529;-83
2022/10/17 00:54:02;;;;;;;20.10;15.87;;;;;;;;;;6573955;28;20201;-83
2022/10/17 00:57:14;;;;;;;20.67;16.13;;;;;;;;;;6573951;28;20201;-83
2022/10/17 01:00:25;;;;;;;20.87;16.50;;;;;;;;;;6573762;28;20597;-83
2022/10/17 01:03:35;;;;;;;18.97;15.87;;;;;;;;;;6573901;28;20180;-83
2022/10/17 01:06:45;;;;;;;19.93;15.07;;;;;;;;;;6574084;28;20227;-83
2022/10/17 01:09:56;;;;;;;21.23;16.20;;;;;;;;;;6573660;28;20201;-83
2022/10/17 01:13:09;;;;;;;22.63;16.43;;;;;;;;;;6573576;28;20364;-83
2022/10/17 01:16:19;;;;;;;21.37;16.07;;;;;;;;;;6573332;28;20618;-83
2022/10/17 01:19:32;;;;;;;20.27;15.20;;;;;;;;;;6573288;28;20252;-83
2022/10/17 01:23:08;;;;;;;19.87;15.93;;;;;;;;;;6573368;28;20177;-83
2022/10/17 01:26:37;;;;;;;20.83;16.33;;;;;;;;;;6573467;28;20162;-83
2022/10/17 01:29:56;;;;;;;20.10;15.40;;;;;;;;;;6573581;28;20564;-83
2022/10/17 01:33:11;;;;;;;21.97;16.10;;;;;;;;;;6573816;28;20264;-83
2022/10/17 01:36:36;;;;;;;22.43;16.73;;;;;;;;;;6572994;28;20177;-83
2022/10/17 01:39:50;;;;;;;20.57;16.10;;;;;;;;;;6555402;28;20267;-83
2022/10/17 01:43:13;;;;;;;22.27;17.23;;;;;;;;;;6572839;28;20165;-83
2022/10/17 01:46:26;;;;;;;20.00;15.33;;;;;;;;;;6573308;28;20496;-83
2022/10/17 01:49:39;;;;;;;22.23;16.67;;;;;;;;;;6572492;28;20519;-83
2022/10/17 01:52:51;;;;;;;19.57;16.50;;;;;;;;;;6572138;28;20193;-83
2022/10/17 01:56:03;;;;;;;20.03;16.67;;;;;;;;;;6572463;28;20728;-83
2022/10/17 01:59:18;;;;;;;20.37;16.87;;;;;;;;;;6572306;28;20266;-83
2022/10/17 02:02:30;;;;;;;20.87;16.40;;;;;;;;;;6572759;28;20150;-83
2022/10/17 02:05:41;;;;;;;23.87;17.63;;;;;;;;;;6572601;28;20205;-83
2022/10/17 02:08:51;;;;;;;22.97;16.37;;;;;;;;;;6572267;28;20181;-83
2022/10/17 02:12:05;;;;;;;23.70;16.97;;;;;;;;;;6571775;28;20172;-83
2022/10/17 02:15:33;;;;;;;22.90;16.97;;;;;;;;;;6572443;28;20165;-83
2022/10/17 02:18:44;;;;;;;19.57;15.90;;;;;;;;;;6572196;28;20204;-83
2022/10/17 02:21:54;;;;;;;19.67;16.30;;;;;;;;;;6554554;28;20634;-83
2022/10/17 02:25:07;;;;;;;21.70;16.60;;;;;;;;;;6572256;28;20165;-83
2022/10/17 02:28:28;;;;;;;21.33;16.57;;;;;;;;;;6571501;28;20166;-83
2022/10/17 02:31:50;;;;;;;22.80;17.03;;;;;;;;;;6572378;28;20164;-83
2022/10/17 02:35:02;;;;;;;23.20;17.77;;;;;;;;;;6571327;28;20173;-83
2022/10/17 02:38:13;;;;;;;22.30;17.10;;;;;;;;;;6570972;28;20224;-83
2022/10/17 02:41:24;;;;;;;21.23;17.07;;;;;;;;;;6571160;28;20518;-83
2022/10/17 02:44:36;;;;;;;22.10;17.23;;;;;;;;;;6571406;28;20212;-82
2022/10/17 02:47:46;;;;;;;20.87;16.87;;;;;;;;;;6571211;28;20248;-82
2022/10/17 02:51:03;;;;;;;20.70;16.27;;;;;;;;;;6571153;28;20196;-82
2022/10/17 02:54:20;;;;;;;19.80;16.37;;;;;;;;;;6570543;28;20193;-83
2022/10/17 02:57:35;;;;;;;23.00;17.63;;;;;;;;;;6570836;28;20204;-83
2022/10/17 03:00:46;;;;;;;19.70;16.97;;;;;;;;;;6571271;28;20542;-82
2022/10/17 03:04:08;;;;;;;23.90;17.93;;;;;;;;;;6570935;28;20177;-83
2022/10/17 03:07:19;;;;;;;25.83;18.23;;;;;;;;;;6554045;28;20670;-82
2022/10/17 03:10:29;;;;;;;24.03;18.17;;;;;;;;;;6570340;28;20192;-83
2022/10/17 03:13:39;;;;;;;25.60;18.87;;;;;;;;;;6570976;28;20219;-83
2022/10/17 03:16:50;;;;;;;23.27;17.83;;;;;;;;;;6571084;28;20200;-83
2022/10/17 03:20:00;;;;;;;30.20;17.87;;;;;;;;;;6570552;28;20173;-83
2022/10/17 03:23:11;;;;;;;22.10;18.00;;;;;;;;;;6570069;28;20260;-83
2022/10/17 03:26:21;;;;;;;24.03;17.70;;;;;;;;;;6570592;28;20165;-83
2022/10/17 03:29:31;;;;;;;26.83;19.40;;;;;;;;;;6570726;28;20185;-83
2022/10/17 03:32:42;;;;;;;28.03;19.90;;;;;;;;;;6569947;28;20205;-83
2022/10/17 03:35:52;;;;;;;26.70;19.67;;;;;;;;;;6569800;28;20177;-83
2022/10/17 03:39:02;;;;;;;26.90;19.60;;;;;;;;;;6570483;28;20200;-83
2022/10/17 03:42:13;;;;;;;29.87;19.37;;;;;;;;;;6570091;28;20184;-83
2022/10/17 03:45:23;;;;;;;23.23;17.63;;;;;;;;;;6569703;28;20204;-83
2022/10/17 03:48:33;;;;;;;26.90;18.77;;;;;;;;;;6570445;28;20707;-83
2022/10/17 03:51:44;;;;;;;24.33;17.70;;;;;;;;;;6569942;28;20200;-83
2022/10/17 03:54:54;;;;;;;24.27;17.87;;;;;;;;;;6569563;28;20189;-83
2022/10/17 03:58:04;;;;;;;24.00;18.03;;;;;;;;;;6570620;28;20201;-83
2022/10/17 04:01:16;;;;;;;22.37;17.80;;;;;;;;;;6570200;28;20225;-83
2022/10/17 04:04:26;;;;;;;25.93;18.20;;;;;;;;;;6552315;28;20684;-83
2022/10/17 04:07:36;;;;;;;29.10;18.77;;;;;;;;;;6570273;28;20181;-83
2022/10/17 04:10:46;;;;;;;24.93;18.90;;;;;;;;;;6569889;28;20192;-83
2022/10/17 04:13:58;;;;;;;25.20;20.10;;;;;;;;;;6570260;28;20169;-83
2022/10/17 04:17:09;;;;;;;26.47;19.83;;;;;;;;;;6569741;28;20204;-83
2022/10/17 04:20:19;;;;;;;27.83;18.83;;;;;;;;;;6570318;28;20232;-83
2022/10/17 04:23:30;;;;;;;23.07;17.90;;;;;;;;;;6574118;28;20531;-83
2022/10/17 04:26:40;;;;;;;24.17;19.23;;;;;;;;;;6574469;28;20180;-82
2022/10/17 04:29:50;;;;;;;25.80;19.53;;;;;;;;;;6574814;28;20173;-82
2022/10/17 04:33:01;;;;;;;26.50;18.07;;;;;;;;;;6574428;28;20169;-82
2022/10/17 04:36:12;;;;;;;26.83;19.70;;;;;;;;;;6575250;28;20663;-82
2022/10/17 04:39:22;;;;;;;24.97;19.37;;;;;;;;;;6574969;28;20224;-82
2022/10/17 04:42:33;;;;;;;26.47;19.50;;;;;;;;;;6573967;28;20169;-82
2022/10/17 04:45:43;;;;;;;23.33;17.33;;;;;;;;;;6573908;28;20177;-82
2022/10/17 04:48:53;;;;;;;23.67;18.77;;;;;;;;;;6574836;28;20177;-82
2022/10/17 04:52:04;;;;;;;27.63;19.83;;;;;;;;;;6574355;28;20527;-83
2022/10/17 04:55:14;;;;;;;37.67;26.40;;;;;;;;;;6574342;28;20339;-83
2022/10/17 04:58:24;;;;;;;34.30;25.37;;;;;;;;;;6573476;28;20201;-83
2022/10/17 05:01:35;;;;;;;39.47;25.40;;;;;;;;;;6573448;28;20224;-83
2022/10/17 05:04:45;;;;;;;34.80;26.10;;;;;;;;;;6573879;28;20177;-83
2022/10/17 05:07:55;;;;;;;33.10;26.53;;;;;;;;;;6573659;28;20181;-83
2022/10/17 05:11:14;;;;;;;44.53;31.10;;;;;;;;;;6573756;28;20577;-83
2022/10/17 05:14:24;;;;;;;45.40;32.30;;;;;;;;;;6573909;28;20162;-83
2022/10/17 05:17:35;;;;;;;45.07;30.70;;;;;;;;;;6573082;28;20711;-82
2022/10/17 05:20:45;;;;;;;50.97;35.47;;;;;;;;;;6573540;28;20180;-83
2022/10/17 05:23:56;;;;;;;43.70;33.07;;;;;;;;;;6573303;28;20637;-83
2022/10/17 05:27:06;;;;;;;44.20;32.27;;;;;;;;;;6573546;28;20169;-83
2022/10/17 05:30:16;;;;;;;44.87;31.83;;;;;;;;;;6573232;28;20534;-83
2022/10/17 05:33:27;;;;;;;37.57;28.40;;;;;;;;;;6572335;28;20192;-83
2022/10/17 05:36:37;;;;;;;38.83;25.97;;;;;;;;;;6573200;28;20180;-85
2022/10/17 05:39:47;;;;;;;31.63;24.17;;;;;;;;;;6573047;28;20250;-86
2022/10/17 05:42:58;;;;;;;32.93;24.20;;;;;;;;;;6573102;28;20165;-85
2022/10/17 05:46:08;;;;;;;33.60;25.17;;;;;;;;;;6572853;28;20173;-83
2022/10/17 05:49:18;;;;;;;32.80;25.33;;;;;;;;;;6572804;28;20173;-83
2022/10/17 05:52:29;;;;;;;33.33;24.63;;;;;;;;;;6572700;28;20173;-83
2022/10/17 05:55:39;;;;;;;32.37;24.43;;;;;;;;;;6572197;28;20197;-83
2022/10/17 05:58:49;;;;;;;32.50;23.20;;;;;;;;;;6572428;28;20204;-83
2022/10/17 06:02:00;;;;;;;26.67;21.53;;;;;;;;;;6572334;28;20235;-83
2022/10/17 06:05:10;;;;;;;26.10;21.43;;;;;;;;;;6571135;28;20177;-84
2022/10/17 06:08:21;;;;;;;29.23;21.23;;;;;;;;;;6572694;28;20169;-84
2022/10/17 06:11:31;;;;;;;25.77;20.52;;;;;;;;;;6572149;28;20200;-84
2022/10/17 06:14:41;;;;;;;26.13;19.17;;;;;;;;;;6572252;28;20220;-83
2022/10/17 06:17:52;;;;;;;24.50;20.90;;;;;;;;;;6572658;28;20204;-84
2022/10/17 06:21:06;;;;;;;25.63;21.50;;;;;;;;;;6572443;28;20176;-85
2022/10/17 06:24:17;;;;;;;24.08;21.48;;;;;;;;;;6572024;28;20177;-84
2022/10/17 06:27:27;;;;;;;31.15;24.98;;;;;;;;;;6571653;28;20173;-84
2022/10/17 06:30:38;;;;;;;26.27;22.95;;;;;;;;;;6572352;28;20177;-83
2022/10/17 06:33:48;;;;;;;27.27;23.70;;;;;;;;;;6571449;28;20165;-84
2022/10/17 06:36:59;;;;;;;22.52;20.08;;;;;;;;;;6571336;28;20279;-84
2022/10/17 06:40:11;;;;;;;20.40;18.23;;;;;;;;;;6554005;28;20248;-84
2022/10/17 06:43:21;;;;;;;23.77;19.60;;;;;;;;;;6572028;28;20162;-84
2022/10/17 06:46:31;;;;;;;20.40;18.25;;;;;;;;;;6571375;28;20208;-84
2022/10/17 06:49:41;;;;;;;20.52;18.15;;;;;;;;;;6571048;28;20176;-83
2022/10/17 06:52:52;;;;;;;22.45;19.95;;;;;;;;;;6571125;28;20638;-86
2022/10/17 06:56:03;;;;;;;23.45;20.90;;;;;;;;;;6571106;28;20178;-86
2022/10/17 06:59:14;;;;;;;22.00;19.70;;;;;;;;;;6553441;28;20685;-84
2022/10/17 07:02:24;;;;;;;22.08;19.77;;;;;;;;;;6571238;28;20227;-83
2022/10/17 07:05:35;;;;;;;23.30;19.17;;;;;;;;;;6571456;28;20568;-83
2022/10/17 07:08:45;;;;;;;19.40;17.17;;;;;;;;;;6570641;28;20181;-83
2022/10/17 07:11:58;;;;;;;20.60;17.35;;;;;;;;;;6571803;28;20243;-84
2022/10/17 07:15:08;;;;;;;20.85;16.60;;;;;;;;;;6571525;28;20173;-84
2022/10/17 07:18:19;;;;;;;19.15;16.80;;;;;;;;;;6571315;28;20205;-84
2022/10/17 07:21:29;;;;;;;20.83;15.73;;;;;;;;;;6570833;28;20184;-84
2022/10/17 07:24:39;;;;;;;17.33;15.57;;;;;;;;;;6570653;28;20636;-85
2022/10/17 07:27:50;;;;;;;17.73;15.73;;;;;;;;;;6553322;28;20192;-84
2022/10/17 07:31:05;;;;;;;17.63;15.70;;;;;;;;;;6570580;28;20215;-84
2022/10/17 07:34:15;;;;;;;18.45;15.75;;;;;;;;;;6570579;28;20168;-84
2022/10/17 07:37:25;;;;;;;16.30;14.60;;;;;;;;;;6570211;28;20600;-84
2022/10/17 07:40:36;;;;;;;17.98;16.15;;;;;;;;;;6570547;28;20184;-83
2022/10/17 07:43:46;;;;;;;18.23;14.90;;;;;;;;;;6570846;28;20201;-83
2022/10/17 07:46:56;;;;;;;17.65;14.43;;;;;;;;;;6570591;28;20622;-82
2022/10/17 07:50:07;;;;;;;15.93;14.43;;;;;;;;;;6570406;28;20173;-82
2022/10/17 07:53:17;;;;;;;16.30;14.35;;;;;;;;;;6569799;28;20752;-82
2022/10/17 07:56:28;;;;;;;15.80;13.30;;;;;;;;;;6573261;28;20525;-83
2022/10/17 07:59:38;;;;;;;14.00;12.60;;;;;;;;;;6575999;28;20568;-83
2022/10/17 08:02:49;;;;;;;16.45;13.27;;;;;;;;;;6575033;28;20684;-83
2022/10/17 08:06:00;;;;;;;14.13;12.73;;;;;;;;;;6576232;28;20612;-82
2022/10/17 08:09:10;;;;;;;13.93;12.57;;;;;;;;;;6575031;28;20169;-83
2022/10/17 08:12:20;;;;;;;14.98;12.63;;;;;;;;;;6574119;28;20177;-83
2022/10/17 08:15:31;;;;;;;13.07;11.77;;;;;;;;;;6575192;28;20169;-83
2022/10/17 08:18:42;;;;;;;13.10;11.70;;;;;;;;;;6575022;28;20211;-82
2022/10/17 08:21:53;;;;;;;13.82;11.65;;;;;;;;;;6574621;28;20633;-82
2022/10/17 08:25:03;;;;;;;13.85;12.55;;;;;;;;;;6557352;28;20645;-83
2022/10/17 08:28:14;;;;;;;14.07;12.77;;;;;;;;;;6574694;28;20173;-83
2022/10/17 08:31:26;;;;;;;13.75;12.35;;;;;;;;;;6574237;28;20255;-83
2022/10/17 08:34:36;;;;;;;15.25;12.82;;;;;;;;;;6574312;28;20176;-83
2022/10/17 08:37:47;;;;;;;13.75;12.40;;;;;;;;;;6574183;28;20553;-83
2022/10/17 08:41:00;;;;;;;13.18;11.85;;;;;;;;;;6574838;28;20200;-84
2022/10/17 08:44:10;;;;;;;14.05;12.63;;;;;;;;;;6573717;28;20178;-82
2022/10/17 08:47:35;;;;;;;14.98;13.38;;;;;;;;;;6574130;28;20231;-82
2022/10/17 08:50:50;;;;;;;14.82;13.27;;;;;;;;;;6574976;28;20188;-82
2022/10/17 08:54:05;;;;;;;15.20;12.30;;;;;;;;;;6574025;28;20185;-83
2022/10/17 08:57:16;;;;;;;14.07;12.68;;;;;;;;;;6557786;28;20709;-83
2022/10/17 09:00:27;;;;;;;16.55;13.05;;;;;;;;;;6573508;28;20225;-83
2022/10/17 09:03:46;;;;;;;15.35;13.82;;;;;;;;;;6556704;28;20180;-83
2022/10/17 09:07:04;;;;;;;13.80;12.45;;;;;;;;;;6573709;28;20202;-83
2022/10/17 09:10:35;;;;;;;14.95;12.52;;;;;;;;;;6573793;28;20162;-83
2022/10/17 09:13:51;;;;;;;13.68;12.32;;;;;;;;;;6574249;28;20165;-84
2022/10/17 09:17:24;;;;;;;14.70;13.20;;;;;;;;;;6574223;28;20549;-83
2022/10/17 09:20:46;;;;;;;14.00;12.60;;;;;;;;;;6574598;28;20261;-83
2022/10/17 09:23:58;;;;;;;12.38;11.05;;;;;;;;;;6573108;28;20243;-83
2022/10/17 09:27:16;;;;;;;13.18;11.57;;;;;;;;;;6573346;28;20177;-83
2022/10/17 09:30:35;;;;;;;14.27;12.23;;;;;;;;;;6555443;28;20180;-83
2022/10/17 09:33:46;;;;;;;13.40;12.00;;;;;;;;;;6573239;28;20180;-84
2022/10/17 09:36:58;;;;;;;15.10;12.68;;;;;;;;;;6573207;28;20208;-82
2022/10/17 09:40:16;;;;;;;13.85;12.30;;;;;;;;;;6573164;28;20165;-83
2022/10/17 09:43:28;;;;;;;13.95;12.60;;;;;;;;;;6573614;28;20149;-83
2022/10/17 09:46:39;;;;;;;12.85;11.57;;;;;;;;;;6573554;28;20178;-83
2022/10/17 09:49:49;;;;;;;12.77;11.50;;;;;;;;;;6572624;28;20537;-84
2022/10/17 09:53:01;;;;;;;14.57;12.13;;;;;;;;;;6573636;28;20177;-83
2022/10/17 09:56:14;;;;;;;11.73;10.63;;;;;;;;;;6570831;28;20173;-84
2022/10/17 09:59:39;;;;;;;11.65;10.25;;;;;;;;;;6570153;28;20232;-84
2022/10/17 10:02:49;;;;;;;11.80;10.40;;;;;;;;;;6570287;28;20173;-84
2022/10/17 10:06:02;;;;;;;11.20;10.20;;;;;;;;;;6569700;28;20180;-84
2022/10/17 10:09:20;;;;;;;12.20;10.70;;;;;;;;;;6572584;28;20507;-83
2022/10/17 10:12:32;;;;;;;11.10;10.00;;;;;;;;;;6573220;28;20495;-84
2022/10/17 10:15:43;;;;;;;11.05;9.95;;;;;;;;;;6572635;28;20184;-83
2022/10/17 10:18:55;;;;;;;12.20;11.00;;;;;;;;;;6572165;28;20201;-84
2022/10/17 10:22:14;;;;;;;11.20;9.98;;;;;;;;;;6572162;28;20173;-84
2022/10/17 10:25:25;;;;;;;10.18;9.18;;;;;;;;;;6572365;28;20180;-83
2022/10/17 10:28:35;;;;;;;11.43;10.23;;;;;;;;;;6572021;28;20177;-84
2022/10/17 10:31:46;;;;;;;13.23;11.05;;;;;;;;;;6571907;28;20634;-83
2022/10/17 10:34:58;;;;;;;11.68;10.57;;;;;;;;;;6571642;28;20174;-84
2022/10/17 10:38:12;;;;;;;11.43;10.00;;;;;;;;;;6571487;28;20205;-84
2022/10/17 10:41:26;;;;;;;11.50;10.50;;;;;;;;;;6571829;28;20181;-83
2022/10/17 10:44:38;;;;;;;12.10;11.00;;;;;;;;;;6571213;28;20177;-83
2022/10/17 10:47:53;;;;;;;11.48;10.38;;;;;;;;;;6571225;28;20199;-83
2022/10/17 10:51:03;;;;;;;10.43;9.52;;;;;;;;;;6571553;28;20173;-83
2022/10/17 10:54:19;;;;;;;11.55;9.43;;;;;;;;;;6572015;28;20240;-83
2022/10/17 10:57:30;;;;;;;11.05;10.05;;;;;;;;;;6572205;28;20506;-83
2022/10/17 11:00:40;;;;;;;10.80;9.80;;;;;;;;;;6570678;28;20327;-83
2022/10/17 11:03:51;;;;;;;11.45;10.38;;;;;;;;;;6570779;28;20173;-82
2022/10/17 11:07:09;;;;;;;10.98;9.98;;;;;;;;;;6570291;28;20173;-82
2022/10/17 11:10:22;;;;;;;11.95;10.75;;;;;;;;;;6571618;28;20549;-82
2022/10/17 11:13:36;;;;;;;10.75;9.75;;;;;;;;;;6571426;28;20499;-83
2022/10/17 11:17:10;;;;;;;10.93;9.90;;;;;;;;;;6571552;28;20554;-83
2022/10/17 11:20:26;;;;;;;10.48;9.48;;;;;;;;;;6570633;28;20295;-83
2022/10/17 11:23:46;;;;;;;10.85;9.90;;;;;;;;;;6571162;28;20514;-83
2022/10/17 11:27:00;;;;;;;10.52;9.50;;;;;;;;;;6550908;28;20641;-83
2022/10/17 11:30:12;;;;;;;10.77;9.77;;;;;;;;;;6567519;28;20176;-85
2022/10/17 11:33:25;;;;;;;10.52;9.57;;;;;;;;;;6567848;28;20173;-84
2022/10/17 11:36:39;;;;;;;10.55;9.55;;;;;;;;;;6567842;28;20165;-84
2022/10/17 11:39:57;;;;;;;9.90;9.00;;;;;;;;;;6568107;28;20177;-84
2022/10/17 11:43:34;;;;;;;11.07;9.98;;;;;;;;;;6567737;28;20533;-84
2022/10/17 11:46:47;;;;;;;9.98;9.07;;;;;;;;;;6546713;28;20225;-84
2022/10/17 11:50:17;;;;;;;9.25;8.40;;;;;;;;;;6569520;28;20260;-84
2022/10/17 11:53:30;;;;;;;11.90;9.00;;;;;;;;;;6569153;28;20207;-84
2022/10/17 11:56:43;;;;;;;10.13;9.07;;;;;;;;;;6569309;28;20172;-83
2022/10/17 11:59:56;;;;;;;10.07;9.07;;;;;;;;;;6570755;28;20228;-84
2022/10/17 12:03:06;;;;;;;9.88;8.88;;;;;;;;;;6569546;28;20268;-84
2022/10/17 12:06:19;;;;;;;9.80;8.80;;;;;;;;;;6569895;28;20175;-84
2022/10/17 12:09:30;;;;;;;9.70;8.80;;;;;;;;;;6570238;28;20180;-84
2022/10/17 12:12:40;;;;;;;9.15;8.25;;;;;;;;;;6552709;28;20177;-84
2022/10/17 12:15:50;;;;;;;9.70;8.77;;;;;;;;;;6569720;28;20257;-84
2022/10/17 12:19:01;;;;;;;9.30;8.40;;;;;;;;;;6569968;28;20203;-84
2022/10/17 12:22:11;;;;;;;9.30;8.32;;;;;;;;;;6570781;28;20173;-84
2022/10/17 12:25:28;;;;;;;10.05;8.88;;;;;;;;;;6570420;28;20212;-84
2022/10/17 12:28:38;;;;;;;10.85;8.45;;;;;;;;;;6570736;28;20181;-83
2022/10/17 12:31:49;;;;;;;9.20;8.25;;;;;;;;;;6550799;28;20188;-83
2022/10/17 12:34:59;;;;;;;9.68;8.68;;;;;;;;;;6567996;28;20168;-84
2022/10/17 12:38:14;;;;;;;9.70;8.80;;;;;;;;;;6570457;28;20212;-85
2022/10/17 12:41:37;;;;;;;10.18;8.30;;;;;;;;;;6552254;28;20708;-84
2022/10/17 12:44:47;;;;;;;8.50;7.80;;;;;;;;;;6574010;28;20174;-84
2022/10/17 12:47:58;;;;;;;8.32;7.55;;;;;;;;;;6574120;28;20169;-84
2022/10/17 12:51:08;;;;;;;9.20;8.30;;;;;;;;;;6574765;28;20641;-83
2022/10/17 12:54:18;;;;;;;9.35;8.45;;;;;;;;;;6574420;28;20196;-84
2022/10/17 12:57:29;;;;;;;8.68;7.88;;;;;;;;;;6574223;28;20251;-85
2022/10/17 13:00:58;;;;;;;8.85;7.85;;;;;;;;;;6574536;28;20264;-84
2022/10/17 13:04:09;;;;;;;7.80;7.13;;;;;;;;;;6574527;28;20210;-84
2022/10/17 13:07:20;;;;;;;8.07;7.35;;;;;;;;;;6573599;28;20235;-84
2022/10/17 13:10:33;;;;;;;8.20;7.40;;;;;;;;;;6573732;28;20173;-87
2022/10/17 13:13:46;;;;;;;8.00;7.20;;;;;;;;;;6573451;28;20169;-86
2022/10/17 13:16:57;;;;;;;8.60;7.38;;;;;;;;;;6573665;28;20169;-85
2022/10/17 13:20:24;;;;;;;8.60;7.72;;;;;;;;;;6556461;28;20697;-87
2022/10/17 13:23:36;;;;;;;7.78;6.97;;;;;;;;;;6574292;28;20180;-88
2022/10/17 13:26:46;;;;;;;7.93;7.25;;;;;;;;;;6573152;28;20173;-87
2022/10/17 13:29:58;;;;;;;7.53;6.82;;;;;;;;;;6571832;28;20660;-89
2022/10/17 13:33:38;;;;;;;8.25;7.45;;;;;;;;;;6572863;28;20180;-88
2022/10/17 13:36:53;;;;;;;8.18;7.38;;;;;;;;;;6539522;28;20189;-89
2022/10/17 13:40:04;;;;;;;9.70;7.70;;;;;;;;;;6573239;28;20173;-88
2022/10/17 13:43:17;;;;;;;8.65;7.80;;;;;;;;;;6573094;28;20165;-87
2022/10/17 13:46:28;;;;;;;8.68;7.53;;;;;;;;;;6571260;28;20181;-87
2022/10/17 13:49:40;;;;;;;10.35;7.35;;;;;;;;;;6572032;28;20205;-86
2022/10/17 13:53:10;;;;;;;8.35;7.47;;;;;;;;;;6573098;28;20169;-86
2022/10/17 13:56:24;;;;;;;8.57;7.45;;;;;;;;;;6573468;28;20628;-88
2022/10/17 13:59:38;;;;;;;8.27;7.50;;;;;;;;;;6572298;28;20237;-86
2022/10/17 14:02:49;;;;;;;8.52;7.60;;;;;;;;;;6570230;28;20625;-86
2022/10/17 14:06:01;;;;;;;9.63;7.60;;;;;;;;;;6570227;28;20176;-86
2022/10/17 14:09:17;;;;;;;7.65;6.85;;;;;;;;;;6570078;28;20173;-86
2022/10/17 14:12:27;;;;;;;7.88;7.18;;;;;;;;;;6569783;28;20260;-87
2022/10/17 14:15:44;;;;;;;8.18;7.38;;;;;;;;;;6569406;28;20180;-87
2022/10/17 14:18:54;;;;;;;9.32;7.72;;;;;;;;;;6570088;28;20189;-87
2022/10/17 14:22:16;;;;;;;8.93;7.97;;;;;;;;;;6572232;28;20209;-87
2022/10/17 14:25:31;;;;;;;8.20;7.40;;;;;;;;;;6570038;28;20177;-87
2022/10/17 14:28:42;;;;;;;8.95;7.40;;;;;;;;;;6569500;28;20169;-86
2022/10/17 14:32:03;;;;;;;11.13;7.88;;;;;;;;;;6569361;28;20173;-87
2022/10/17 14:35:15;;;;;;;8.80;7.90;;;;;;;;;;6568959;28;20237;-87
2022/10/17 14:38:26;;;;;;;8.77;7.88;;;;;;;;;;6569240;28;20200;-87
2022/10/17 14:41:37;;;;;;;8.02;7.22;;;;;;;;;;6569089;28;20863;-90
2022/10/17 14:44:49;;;;;;;8.88;7.30;;;;;;;;;;6567842;28;20296;-87
2022/10/17 14:48:01;;;;;;;10.55;7.30;;;;;;;;;;6570454;28;20268;-85
2022/10/17 14:51:14;;;;;;;8.75;7.95;;;;;;;;;;6553690;28;20540;-86
2022/10/17 14:54:29;;;;;;;8.32;7.53;;;;;;;;;;6571253;28;20327;-86
2022/10/17 14:57:43;;;;;;;9.45;7.72;;;;;;;;;;6571398;28;20581;-85
2022/10/17 15:00:57;;;;;;;10.32;7.50;;;;;;;;;;6570451;28;20240;-84
2022/10/17 15:04:09;;;;;;;8.82;7.93;;;;;;;;;;6553122;28;20672;-85
2022/10/17 15:07:20;;;;;;;9.77;7.38;;;;;;;;;;6570387;28;20191;-85
2022/10/17 15:10:34;;;;;;;9.50;7.63;;;;;;;;;;6570569;28;20523;-86
2022/10/17 15:13:44;;;;;;;10.98;8.50;;;;;;;;;;6571156;28;20223;-85
2022/10/17 15:16:56;;;;;;;9.35;8.43;;;;;;;;;;6571263;28;20169;-84
2022/10/17 15:20:12;;;;;;;9.45;8.45;;;;;;;;;;6552992;28;20629;-84
2022/10/17 15:23:22;;;;;;;10.85;8.48;;;;;;;;;;6570172;28;20169;-83
2022/10/17 15:26:33;;;;;;;9.85;8.50;;;;;;;;;;6569746;28;20704;-83
2022/10/17 15:29:44;;;;;;;10.70;9.50;;;;;;;;;;6570615;28;20169;-84
2022/10/17 15:32:55;;;;;;;9.93;8.90;;;;;;;;;;6570686;28;20210;-84
2022/10/17 15:36:17;;;;;;;12.25;9.55;;;;;;;;;;6568096;28;20181;-84
2022/10/17 15:39:27;;;;;;;10.63;9.63;;;;;;;;;;6567719;28;20628;-84
2022/10/17 15:42:37;;;;;;;11.20;8.88;;;;;;;;;;6569524;28;20169;-83
2022/10/17 15:45:48;;;;;;;12.30;9.95;;;;;;;;;;6569330;28;20177;-82
2022/10/17 15:49:03;;;;;;;12.55;9.65;;;;;;;;;;6549469;28;20189;-82
2022/10/17 15:52:13;;;;;;;14.15;10.38;;;;;;;;;;6567542;28;20173;-84
2022/10/17 15:55:23;;;;;;;12.73;10.32;;;;;;;;;;6567115;28;20719;-83
2022/10/17 15:58:35;;;;;;;13.43;10.73;;;;;;;;;;6567175;28;20209;-83
2022/10/17 16:01:47;;;;;;;15.55;11.40;;;;;;;;;;6567511;28;20681;-83
2022/10/17 16:04:57;;;;;;;14.45;11.30;;;;;;;;;;6568137;28;20230;-83
2022/10/17 16:08:08;;;;;;;21.67;15.48;;;;;;;;;;6567801;28;20177;-82
2022/10/17 16:11:23;;;;;;;23.05;16.63;;;;;;;;;;6568111;28;20577;-83
2022/10/17 16:14:33;;;;;;;21.75;17.13;;;;;;;;;;6551793;28;20177;-82
2022/10/17 16:17:44;;;;;;;30.43;20.40;;;;;;;;;;6572372;28;20556;-82
2022/10/17 16:20:54;;;;;;;24.85;18.88;;;;;;;;;;6575341;28;20260;-83
2022/10/17 16:24:05;;;;;;;24.87;17.67;;;;;;;;;;6574504;28;20234;-83
2022/10/17 16:27:15;;;;;;;23.13;16.30;;;;;;;;;;6574799;28;20253;-82
2022/10/17 16:30:27;;;;;;;23.77;18.70;;;;;;;;;;6574755;28;20173;-82
2022/10/17 16:33:37;;;;;;;51.17;36.43;;;;;;;;;;6556909;28;20315;-83
2022/10/17 16:36:47;;;;;;;50.43;33.70;;;;;;;;;;6574698;28;20169;-83
2022/10/17 16:39:58;;;;;;;31.97;25.10;;;;;;;;;;6573976;28;20625;-82
2022/10/17 16:43:11;;;;;;;27.07;21.23;;;;;;;;;;6574214;28;20208;-83
2022/10/17 16:46:23;;;;;;;26.23;20.53;;;;;;;;;;6574702;28;20218;-82
2022/10/17 16:49:33;;;;;;;25.53;19.33;;;;;;;;;;6556595;28;20183;-82
2022/10/17 16:52:43;;;;;;;27.87;20.03;;;;;;;;;;6557448;28;20184;-83
2022/10/17 16:56:00;;;;;;;28.50;21.60;;;;;;;;;;6574264;28;20189;-83
2022/10/17 16:59:11;;;;;;;36.63;26.70;;;;;;;;;;6556134;28;20652;-84
2022/10/17 17:02:21;;;;;;;43.70;30.10;;;;;;;;;;6573883;28;20156;-83
2022/10/17 17:05:32;;;;;;;35.53;25.23;;;;;;;;;;6574108;28;20165;-83
2022/10/17 17:08:42;;;;;;;28.53;21.20;;;;;;;;;;6573645;28;20208;-84
2022/10/17 17:11:52;;;;;;;30.13;20.73;;;;;;;;;;6555914;28;20663;-83
2022/10/17 17:15:04;;;;;;;35.33;22.40;;;;;;;;;;6573129;28;20534;-83
2022/10/17 17:18:14;;;;;;;43.80;33.17;;;;;;;;;;6573651;28;20251;-83
2022/10/17 17:21:26;;;;;;;46.63;31.27;;;;;;;;;;6574061;28;20173;-83
2022/10/17 17:24:36;;;;;;;54.37;39.80;;;;;;;;;;6573286;28;20169;-83
2022/10/17 17:27:47;;;;;;;70.57;52.23;;;;;;;;;;6572264;28;20184;-83
2022/10/17 17:30:57;;;;;;;66.77;46.87;;;;;;;;;;6573086;28;20254;-83
2022/10/17 17:34:08;;;;;;;49.23;35.53;;;;;;;;;;6572682;28;20169;-83
2022/10/17 17:37:18;;;;;;;42.37;31.53;;;;;;;;;;6573269;28;20200;-83
2022/10/17 17:40:28;;;;;;;41.30;30.30;;;;;;;;;;6572446;28;20260;-83
2022/10/17 17:43:39;;;;;;;36.40;24.97;;;;;;;;;;6572270;28;20556;-83
2022/10/17 17:46:50;;;;;;;30.33;22.90;;;;;;;;;;6572511;28;20227;-83
2022/10/17 17:50:01;;;;;;;32.63;22.03;;;;;;;;;;6573152;28;20173;-84
2022/10/17 17:53:12;;;;;;;30.03;21.27;;;;;;;;;;6572640;28;20176;-83
2022/10/17 17:56:24;;;;;;;26.87;19.40;;;;;;;;;;6572729;28;20189;-84
2022/10/17 17:59:34;;;;;;;25.73;17.73;;;;;;;;;;6572982;28;20241;-83
2022/10/17 18:02:45;;;;;;;21.27;16.87;;;;;;;;;;6555631;28;20584;-84
2022/10/17 18:05:55;;;;;;;22.00;16.97;;;;;;;;;;6572584;28;20173;-83
2022/10/17 18:09:06;;;;;;;22.27;16.77;;;;;;;;;;6572000;28;20537;-84
2022/10/17 18:12:16;;;;;;;22.77;16.47;;;;;;;;;;6572343;28;20212;-84
2022/10/17 18:15:26;;;;;;;23.03;16.57;;;;;;;;;;6572234;28;20180;-84
2022/10/17 18:18:37;;;;;;;22.10;16.57;;;;;;;;;;6573082;28;20565;-84
2022/10/17 18:21:47;;;;;;;20.93;16.00;;;;;;;;;;6571824;28;20179;-84
2022/10/17 18:24:58;;;;;;;22.43;16.07;;;;;;;;;;6555715;28;20191;-84
2022/10/17 18:28:08;;;;;;;19.50;16.07;;;;;;;;;;6571865;28;20177;-83
2022/10/17 18:31:25;;;;;;;21.10;17.03;;;;;;;;;;6572199;28;20177;-84
2022/10/17 18:34:35;;;;;;;20.40;16.57;;;;;;;;;;6572565;28;20188;-85
2022/10/17 18:37:45;;;;;;;22.43;16.63;;;;;;;;;;6571244;28;20193;-84
2022/10/17 18:41:22;;;;;;;20.73;15.73;;;;;;;;;;6554987;28;20214;-84
2022/10/17 18:44:32;;;;;;;21.97;16.87;;;;;;;;;;6550083;28;20574;-85
2022/10/17 18:47:45;;;;;;;19.73;16.83;;;;;;;;;;6537308;28;20192;-85
2022/10/17 18:50:56;;;;;;;21.10;16.67;;;;;;;;;;6571128;28;20169;-85